sensor_id;sensor_type;location;lat;lon;timestamp;pressure;altitude;pressure_sealevel;temperature;humidity
20023;BME280;10172;42.054;24.546;2023-04-07T00:01:54;97976.19;;;5.78;64.84
20023;BME280;10172;42.054;24.546;2023-04-07T00:04:20;97972.97;;;6.22;63.15
20023;BME280;10172;42.054;24.546;2023-04-07T00:06:45;97985.41;;;6.51;62.14
20023;BME280;10172;42.054;24.546;2023-04-07T00:09:10;97971.88;;;6.87;62.64
20023;BME280;10172;42.054;24.546;2023-04-07T00:11:37;97977.22;;;6.40;63.62
20023;BME280;10172;42.054;24.546;2023-04-07T00:14:02;97968.34;;;5.77;64.46
20023;BME280;10172;42.054;24.546;2023-04-07T00:16:28;97973.53;;;6.11;63.97
20023;BME280;10172;42.054;24.546;2023-04-07T00:18:54;97975.31;;;5.62;64.79
20023;BME280;10172;42.054;24.546;2023-04-07T00:21:19;97966.47;;;5.79;63.16
20023;BME280;10172;42.054;24.546;2023-04-07T00:23:45;97945.63;;;5.74;64.24
20023;BME280;10172;42.054;24.546;2023-04-07T00:26:11;97954.38;;;6.23;61.85
20023;BME280;10172;42.054;24.546;2023-04-07T00:28:37;97977.66;;;6.32;59.63
20023;BME280;10172;42.054;24.546;2023-04-07T00:31:02;97973.91;;;6.21;60.68
20023;BME280;10172;42.054;24.546;2023-04-07T00:33:28;97960.94;;;6.32;60.36
20023;BME280;10172;42.054;24.546;2023-04-07T00:35:53;97974.47;;;6.73;59.57
20023;BME280;10172;42.054;24.546;2023-04-07T00:38:19;97960.41;;;6.72;60.75
20023;BME280;10172;42.054;24.546;2023-04-07T00:40:45;97970.47;;;7.25;59.74
20023;BME280;10172;42.054;24.546;2023-04-07T00:43:10;97979.16;;;6.52;61.15
20023;BME280;10172;42.054;24.546;2023-04-07T00:45:36;97978.69;;;6.45;61.30
20023;BME280;10172;42.054;24.546;2023-04-07T00:48:02;97968.00;;;6.47;60.84
20023;BME280;10172;42.054;24.546;2023-04-07T00:50:28;97978.81;;;5.95;62.28
20023;BME280;10172;42.054;24.546;2023-04-07T00:52:53;97998.13;;;5.96;62.01
20023;BME280;10172;42.054;24.546;2023-04-07T00:55:21;97984.97;;;6.58;62.33
20023;BME280;10172;42.054;24.546;2023-04-07T00:57:47;97978.16;;;6.08;61.39
20023;BME280;10172;42.054;24.546;2023-04-07T01:00:13;97976.47;;;5.89;61.87
20023;BME280;10172;42.054;24.546;2023-04-07T01:02:47;97974.38;;;6.12;61.97
20023;BME280;10172;42.054;24.546;2023-04-07T01:05:30;97981.72;;;6.69;61.06
20023;BME280;10172;42.054;24.546;2023-04-07T01:11:01;97982.06;;;6.63;59.85
20023;BME280;10172;42.054;24.546;2023-04-07T01:13:39;97968.09;;;6.45;59.73
20023;BME280;10172;42.054;24.546;2023-04-07T01:16:11;97979.59;;;5.80;62.41
20023;BME280;10172;42.054;24.546;2023-04-07T01:18:38;97981.56;;;6.10;60.87
20023;BME280;10172;42.054;24.546;2023-04-07T01:21:14;97966.47;;;5.79;60.42
20023;BME280;10172;42.054;24.546;2023-04-07T01:26:38;97968.56;;;5.89;61.51
20023;BME280;10172;42.054;24.546;2023-04-07T01:31:57;97975.47;;;6.86;59.07
20023;BME280;10172;42.054;24.546;2023-04-07T01:34:25;97977.13;;;6.10;59.69
20023;BME280;10172;42.054;24.546;2023-04-07T01:36:53;97973.41;;;5.49;61.85
20023;BME280;10172;42.054;24.546;2023-04-07T01:39:19;97974.66;;;5.74;61.65
20023;BME280;10172;42.054;24.546;2023-04-07T01:41:46;97985.97;;;6.25;60.94
20023;BME280;10172;42.054;24.546;2023-04-07T01:44:12;97977.44;;;5.88;60.38
20023;BME280;10172;42.054;24.546;2023-04-07T01:46:39;97991.25;;;6.25;59.96
20023;BME280;10172;42.054;24.546;2023-04-07T01:49:05;97974.16;;;5.83;62.08
20023;BME280;10172;42.054;24.546;2023-04-07T01:51:32;97992.25;;;5.91;60.72
20023;BME280;10172;42.054;24.546;2023-04-07T01:54:00;97972.75;;;5.76;61.37
20023;BME280;10172;42.054;24.546;2023-04-07T01:56:26;97994.31;;;5.52;63.12
20023;BME280;10172;42.054;24.546;2023-04-07T01:58:51;97980.00;;;5.40;63.29
20023;BME280;10172;42.054;24.546;2023-04-07T02:01:17;97974.66;;;5.74;62.84
20023;BME280;10172;42.054;24.546;2023-04-07T02:06:19;97973.22;;;5.84;60.53
20023;BME280;10172;42.054;24.546;2023-04-07T02:08:50;97980.91;;;5.56;61.78
20023;BME280;10172;42.054;24.546;2023-04-07T02:11:19;97970.56;;;5.84;60.78
20023;BME280;10172;42.054;24.546;2023-04-07T02:13:46;97977.28;;;6.70;60.46
20023;BME280;10172;42.054;24.546;2023-04-07T02:16:12;97988.44;;;6.12;62.96
20023;BME280;10172;42.054;24.546;2023-04-07T02:18:40;97982.75;;;6.20;62.97
20023;BME280;10172;42.054;24.546;2023-04-07T02:21:06;97977.63;;;6.01;64.90
20023;BME280;10172;42.054;24.546;2023-04-07T02:23:36;97985.38;;;6.20;65.77
20023;BME280;10172;42.054;24.546;2023-04-07T02:26:02;97966.50;;;5.29;70.38
20023;BME280;10172;42.054;24.546;2023-04-07T02:28:27;97981.63;;;5.75;68.05
20023;BME280;10172;42.054;24.546;2023-04-07T02:30:52;97970.47;;;5.03;68.54
20023;BME280;10172;42.054;24.546;2023-04-07T02:33:18;97963.94;;;4.93;66.75
20023;BME280;10172;42.054;24.546;2023-04-07T02:35:43;97981.78;;;5.22;63.01
20023;BME280;10172;42.054;24.546;2023-04-07T02:38:09;97958.13;;;5.21;63.92
20023;BME280;10172;42.054;24.546;2023-04-07T02:40:35;97964.63;;;5.31;60.37
20023;BME280;10172;42.054;24.546;2023-04-07T02:43:01;97961.69;;;5.70;62.38
20023;BME280;10172;42.054;24.546;2023-04-07T02:45:27;97987.41;;;5.66;62.59
20023;BME280;10172;42.054;24.546;2023-04-07T02:47:52;97957.34;;;5.36;63.38
20023;BME280;10172;42.054;24.546;2023-04-07T02:50:18;97971.72;;;5.63;62.68
20023;BME280;10172;42.054;24.546;2023-04-07T02:52:43;97974.22;;;5.49;63.93
20023;BME280;10172;42.054;24.546;2023-04-07T02:55:09;97982.47;;;5.26;61.65
20023;BME280;10172;42.054;24.546;2023-04-07T02:57:34;97974.00;;;5.54;61.49
20023;BME280;10172;42.054;24.546;2023-04-07T03:00:00;97964.41;;;5.85;60.47
20023;BME280;10172;42.054;24.546;2023-04-07T03:02:25;97978.28;;;5.89;59.87
20023;BME280;10172;42.054;24.546;2023-04-07T03:04:51;97991.94;;;5.97;61.28
20023;BME280;10172;42.054;24.546;2023-04-07T03:07:17;97956.75;;;4.97;66.79
20023;BME280;10172;42.054;24.546;2023-04-07T03:09:42;97956.97;;;4.92;67.64
20023;BME280;10172;42.054;24.546;2023-04-07T03:12:08;97974.81;;;5.04;68.70
20023;BME280;10172;42.054;24.546;2023-04-07T03:14:33;97977.34;;;5.06;68.58
20023;BME280;10172;42.054;24.546;2023-04-07T03:16:59;97954.25;;;4.94;66.78
20023;BME280;10172;42.054;24.546;2023-04-07T03:19:24;97974.72;;;4.89;66.35
20023;BME280;10172;42.054;24.546;2023-04-07T03:21:50;97980.63;;;4.94;66.81
20023;BME280;10172;42.054;24.546;2023-04-07T03:24:15;97988.44;;;4.78;70.61
20023;BME280;10172;42.054;24.546;2023-04-07T03:26:41;97972.09;;;4.89;71.12
20023;BME280;10172;42.054;24.546;2023-04-07T03:29:07;97963.88;;;5.29;67.24
20023;BME280;10172;42.054;24.546;2023-04-07T03:31:32;97970.91;;;5.46;68.64
20023;BME280;10172;42.054;24.546;2023-04-07T03:33:57;97990.06;;;5.49;67.31
20023;BME280;10172;42.054;24.546;2023-04-07T03:36:23;97974.09;;;5.01;67.83
20023;BME280;10172;42.054;24.546;2023-04-07T03:38:48;97982.56;;;5.24;67.86
20023;BME280;10172;42.054;24.546;2023-04-07T03:41:14;97978.44;;;5.36;67.62
20023;BME280;10172;42.054;24.546;2023-04-07T03:43:40;97984.00;;;5.30;65.74
20023;BME280;10172;42.054;24.546;2023-04-07T03:46:06;97979.84;;;5.43;63.95
20023;BME280;10172;42.054;24.546;2023-04-07T03:48:31;97988.63;;;5.26;64.29
20023;BME280;10172;42.054;24.546;2023-04-07T03:50:57;97990.31;;;5.44;65.10
20023;BME280;10172;42.054;24.546;2023-04-07T03:53:22;98001.41;;;5.34;67.63
20023;BME280;10172;42.054;24.546;2023-04-07T03:55:48;98004.19;;;5.48;67.93
20023;BME280;10172;42.054;24.546;2023-04-07T03:58:13;97988.53;;;4.94;70.74
20023;BME280;10172;42.054;24.546;2023-04-07T04:00:39;97997.03;;;4.64;67.02
20023;BME280;10172;42.054;24.546;2023-04-07T04:03:04;97999.47;;;5.20;64.85
20023;BME280;10172;42.054;24.546;2023-04-07T04:05:30;97997.19;;;5.47;62.46
20023;BME280;10172;42.054;24.546;2023-04-07T04:07:56;97993.13;;;5.74;61.69
20023;BME280;10172;42.054;24.546;2023-04-07T04:10:21;98002.94;;;6.21;62.37
20023;BME280;10172;42.054;24.546;2023-04-07T04:12:47;98001.56;;;4.97;70.95
20023;BME280;10172;42.054;24.546;2023-04-07T04:15:14;98018.84;;;4.12;74.52
20023;BME280;10172;42.054;24.546;2023-04-07T04:17:39;98011.50;;;4.37;69.40
20023;BME280;10172;42.054;24.546;2023-04-07T04:20:06;98015.44;;;5.17;63.73
20023;BME280;10172;42.054;24.546;2023-04-07T04:22:32;98003.28;;;5.32;66.29
20023;BME280;10172;42.054;24.546;2023-04-07T04:24:58;98026.97;;;4.80;66.50
20023;BME280;10172;42.054;24.546;2023-04-07T04:27:23;98010.56;;;5.10;65.46
20023;BME280;10172;42.054;24.546;2023-04-07T04:29:49;98009.72;;;4.73;67.34
20023;BME280;10172;42.054;24.546;2023-04-07T04:32:14;98016.00;;;4.71;67.27
20023;BME280;10172;42.054;24.546;2023-04-07T04:34:42;98026.16;;;4.78;68.84
20023;BME280;10172;42.054;24.546;2023-04-07T04:37:07;98027.53;;;5.04;67.08
20023;BME280;10172;42.054;24.546;2023-04-07T04:39:33;98014.25;;;4.89;67.49
20023;BME280;10172;42.054;24.546;2023-04-07T04:41:58;98034.44;;;5.07;65.95
20023;BME280;10172;42.054;24.546;2023-04-07T04:44:24;98014.34;;;5.56;62.80
20023;BME280;10172;42.054;24.546;2023-04-07T04:46:50;98040.34;;;5.29;61.64
20023;BME280;10172;42.054;24.546;2023-04-07T04:49:16;98022.03;;;5.09;62.91
20023;BME280;10172;42.054;24.546;2023-04-07T04:51:43;98030.19;;;5.38;70.67
20023;BME280;10172;42.054;24.546;2023-04-07T04:54:09;98046.16;;;5.70;64.91
20023;BME280;10172;42.054;24.546;2023-04-07T04:56:34;98041.59;;;5.39;61.26
20023;BME280;10172;42.054;24.546;2023-04-07T04:59:00;98042.00;;;5.98;60.44
20023;BME280;10172;42.054;24.546;2023-04-07T05:01:25;98037.47;;;6.33;60.33
20023;BME280;10172;42.054;24.546;2023-04-07T05:03:50;98040.72;;;6.54;61.95
20023;BME280;10172;42.054;24.546;2023-04-07T05:06:16;98036.53;;;6.66;61.91
20023;BME280;10172;42.054;24.546;2023-04-07T05:08:41;98044.41;;;6.67;62.42
20023;BME280;10172;42.054;24.546;2023-04-07T05:11:07;98040.19;;;6.79;56.94
20023;BME280;10172;42.054;24.546;2023-04-07T05:13:33;98052.88;;;6.41;57.50
20023;BME280;10172;42.054;24.546;2023-04-07T05:15:58;98039.59;;;6.27;57.24
20023;BME280;10172;42.054;24.546;2023-04-07T05:18:24;98042.41;;;6.39;56.29
20023;BME280;10172;42.054;24.546;2023-04-07T05:20:49;98037.13;;;6.24;56.72
20023;BME280;10172;42.054;24.546;2023-04-07T05:23:15;98054.00;;;6.52;56.07
20023;BME280;10172;42.054;24.546;2023-04-07T05:25:41;98064.66;;;6.82;54.98
20023;BME280;10172;42.054;24.546;2023-04-07T05:28:07;98060.63;;;6.13;54.56
20023;BME280;10172;42.054;24.546;2023-04-07T05:30:33;98071.63;;;6.21;54.67
20023;BME280;10172;42.054;24.546;2023-04-07T05:32:58;98054.94;;;6.36;55.08
20023;BME280;10172;42.054;24.546;2023-04-07T05:35:24;98069.91;;;6.20;55.29
20023;BME280;10172;42.054;24.546;2023-04-07T05:37:49;98063.28;;;6.28;54.34
20023;BME280;10172;42.054;24.546;2023-04-07T05:40:15;98058.53;;;6.50;55.84
20023;BME280;10172;42.054;24.546;2023-04-07T05:42:41;98076.16;;;6.19;55.49
20023;BME280;10172;42.054;24.546;2023-04-07T05:45:07;98059.41;;;6.67;56.14
20023;BME280;10172;42.054;24.546;2023-04-07T05:47:33;98075.09;;;6.70;53.46
20023;BME280;10172;42.054;24.546;2023-04-07T05:49:59;98068.63;;;6.59;55.62
20023;BME280;10172;42.054;24.546;2023-04-07T05:52:25;98081.13;;;6.40;53.65
20023;BME280;10172;42.054;24.546;2023-04-07T05:54:50;98067.50;;;6.79;53.99
20023;BME280;10172;42.054;24.546;2023-04-07T05:57:16;98078.91;;;7.70;52.38
20023;BME280;10172;42.054;24.546;2023-04-07T05:59:41;98085.72;;;8.75;51.35
20023;BME280;10172;42.054;24.546;2023-04-07T06:02:06;98073.25;;;8.49;48.36
20023;BME280;10172;42.054;24.546;2023-04-07T06:04:32;98067.47;;;7.10;51.88
20023;BME280;10172;42.054;24.546;2023-04-07T06:07:00;98060.00;;;8.34;49.86
20023;BME280;10172;42.054;24.546;2023-04-07T06:09:25;98060.66;;;9.20;48.03
20023;BME280;10172;42.054;24.546;2023-04-07T06:11:51;98059.00;;;9.31;46.66
20023;BME280;10172;42.054;24.546;2023-04-07T06:14:17;98066.97;;;8.64;47.08
20023;BME280;10172;42.054;24.546;2023-04-07T06:16:43;98075.28;;;8.01;50.88
20023;BME280;10172;42.054;24.546;2023-04-07T06:19:08;98067.41;;;7.86;50.27
20023;BME280;10172;42.054;24.546;2023-04-07T06:21:34;98079.69;;;8.99;48.15
20023;BME280;10172;42.054;24.546;2023-04-07T06:24:00;98068.66;;;9.72;46.50
20023;BME280;10172;42.054;24.546;2023-04-07T06:26:25;98074.19;;;9.29;47.16
20023;BME280;10172;42.054;24.546;2023-04-07T06:28:51;98074.59;;;9.62;46.48
20023;BME280;10172;42.054;24.546;2023-04-07T06:31:17;98078.53;;;9.30;46.68
20023;BME280;10172;42.054;24.546;2023-04-07T06:33:43;98076.28;;;8.28;49.41
20023;BME280;10172;42.054;24.546;2023-04-07T06:36:09;98075.50;;;7.39;51.78
20023;BME280;10172;42.054;24.546;2023-04-07T06:38:35;98079.59;;;7.74;51.76
20023;BME280;10172;42.054;24.546;2023-04-07T06:41:00;98080.75;;;7.98;49.61
20023;BME280;10172;42.054;24.546;2023-04-07T06:43:25;98082.06;;;7.77;50.62
20023;BME280;10172;42.054;24.546;2023-04-07T06:45:51;98065.81;;;8.25;50.31
20023;BME280;10172;42.054;24.546;2023-04-07T06:48:16;98084.78;;;8.76;50.05
20023;BME280;10172;42.054;24.546;2023-04-07T06:50:46;98098.41;;;8.84;48.82
20023;BME280;10172;42.054;24.546;2023-04-07T06:53:11;98080.28;;;8.90;48.08
20023;BME280;10172;42.054;24.546;2023-04-07T06:55:37;98092.78;;;9.69;49.09
20023;BME280;10172;42.054;24.546;2023-04-07T06:58:02;98079.16;;;10.25;46.28
20023;BME280;10172;42.054;24.546;2023-04-07T07:00:28;98082.69;;;8.81;48.66
20023;BME280;10172;42.054;24.546;2023-04-07T07:02:55;98069.97;;;8.01;49.83
20023;BME280;10172;42.054;24.546;2023-04-07T07:05:21;98083.44;;;8.12;49.29
20023;BME280;10172;42.054;24.546;2023-04-07T07:07:47;98073.22;;;9.30;49.91
20023;BME280;10172;42.054;24.546;2023-04-07T07:10:13;98086.38;;;10.36;47.07
20023;BME280;10172;42.054;24.546;2023-04-07T07:12:39;98074.44;;;9.91;46.01
20023;BME280;10172;42.054;24.546;2023-04-07T07:15:05;98070.56;;;10.22;45.43
20023;BME280;10172;42.054;24.546;2023-04-07T07:17:31;98068.03;;;10.69;44.45
20023;BME280;10172;42.054;24.546;2023-04-07T07:19:56;98057.97;;;10.49;45.50
20023;BME280;10172;42.054;24.546;2023-04-07T07:22:21;98080.03;;;9.74;46.58
20023;BME280;10172;42.054;24.546;2023-04-07T07:24:47;98079.50;;;8.48;49.91
20023;BME280;10172;42.054;24.546;2023-04-07T07:27:12;98092.56;;;7.49;51.58
20023;BME280;10172;42.054;24.546;2023-04-07T07:29:38;98087.03;;;8.25;52.88
20023;BME280;10172;42.054;24.546;2023-04-07T07:32:03;98084.88;;;9.28;48.40
20023;BME280;10172;42.054;24.546;2023-04-07T07:34:29;98086.63;;;8.88;48.78
20023;BME280;10172;42.054;24.546;2023-04-07T07:36:55;98070.31;;;9.47;47.75
20023;BME280;10172;42.054;24.546;2023-04-07T07:39:20;98064.00;;;9.88;46.02
20023;BME280;10172;42.054;24.546;2023-04-07T07:41:46;98068.00;;;9.68;47.35
20023;BME280;10172;42.054;24.546;2023-04-07T07:44:11;98075.34;;;10.29;46.91
20023;BME280;10172;42.054;24.546;2023-04-07T07:46:37;98065.63;;;11.02;45.04
20023;BME280;10172;42.054;24.546;2023-04-07T07:49:02;98062.94;;;9.78;45.70
20023;BME280;10172;42.054;24.546;2023-04-07T07:51:29;98075.53;;;10.39;47.07
20023;BME280;10172;42.054;24.546;2023-04-07T07:53:55;98069.41;;;10.74;45.13
20023;BME280;10172;42.054;24.546;2023-04-07T07:56:20;98058.97;;;9.71;46.70
20023;BME280;10172;42.054;24.546;2023-04-07T07:58:46;98065.31;;;10.45;46.60
20023;BME280;10172;42.054;24.546;2023-04-07T08:01:12;98065.78;;;11.12;46.05
20023;BME280;10172;42.054;24.546;2023-04-07T08:03:37;98065.28;;;10.70;44.25
20023;BME280;10172;42.054;24.546;2023-04-07T08:06:03;98056.81;;;10.40;44.73
20023;BME280;10172;42.054;24.546;2023-04-07T08:08:28;98054.34;;;10.99;45.25
20023;BME280;10172;42.054;24.546;2023-04-07T08:10:54;98056.97;;;11.35;43.42
20023;BME280;10172;42.054;24.546;2023-04-07T08:13:19;98051.69;;;12.27;42.82
20023;BME280;10172;42.054;24.546;2023-04-07T08:15:45;98056.44;;;12.68;41.22
20023;BME280;10172;42.054;24.546;2023-04-07T08:18:10;98046.28;;;13.15;41.91
20023;BME280;10172;42.054;24.546;2023-04-07T08:20:36;98038.63;;;13.54;40.25
20023;BME280;10172;42.054;24.546;2023-04-07T08:23:02;98039.25;;;13.78;38.30
20023;BME280;10172;42.054;24.546;2023-04-07T08:25:28;98036.31;;;13.29;39.39
20023;BME280;10172;42.054;24.546;2023-04-07T08:27:53;98040.69;;;11.85;40.94
20023;BME280;10172;42.054;24.546;2023-04-07T08:30:19;98032.94;;;11.00;42.59
20023;BME280;10172;42.054;24.546;2023-04-07T08:32:46;98035.69;;;10.62;44.67
20023;BME280;10172;42.054;24.546;2023-04-07T08:35:12;98018.16;;;10.60;44.08
20023;BME280;10172;42.054;24.546;2023-04-07T08:37:38;98029.63;;;10.24;45.19
20023;BME280;10172;42.054;24.546;2023-04-07T08:40:05;98016.94;;;10.76;45.65
20023;BME280;10172;42.054;24.546;2023-04-07T08:42:33;98015.25;;;11.92;42.35
20023;BME280;10172;42.054;24.546;2023-04-07T08:45:06;98025.78;;;13.05;40.72
20023;BME280;10172;42.054;24.546;2023-04-07T08:47:33;98016.53;;;13.52;39.03
20023;BME280;10172;42.054;24.546;2023-04-07T08:50:01;98008.34;;;13.85;38.55
20023;BME280;10172;42.054;24.546;2023-04-07T08:52:39;98015.69;;;13.93;38.90
20023;BME280;10172;42.054;24.546;2023-04-07T08:55:06;98006.84;;;13.71;40.02
20023;BME280;10172;42.054;24.546;2023-04-07T08:57:33;98019.69;;;13.57;37.59
20023;BME280;10172;42.054;24.546;2023-04-07T09:00:00;98017.91;;;11.92;41.60
20023;BME280;10172;42.054;24.546;2023-04-07T09:02:35;98023.03;;;11.61;42.23
20023;BME280;10172;42.054;24.546;2023-04-07T09:05:06;98030.03;;;12.96;42.43
20023;BME280;10172;42.054;24.546;2023-04-07T09:07:33;98017.47;;;13.62;39.19
20023;BME280;10172;42.054;24.546;2023-04-07T09:09:58;98011.88;;;13.65;40.89
20023;BME280;10172;42.054;24.546;2023-04-07T09:12:25;98018.22;;;14.35;38.82
20023;BME280;10172;42.054;24.546;2023-04-07T09:14:52;98004.72;;;14.77;37.93
20023;BME280;10172;42.054;24.546;2023-04-07T09:17:18;97995.44;;;14.81;38.29
20023;BME280;10172;42.054;24.546;2023-04-07T09:19:43;98001.44;;;14.64;37.03
20023;BME280;10172;42.054;24.546;2023-04-07T09:22:09;98002.25;;;14.55;37.19
20023;BME280;10172;42.054;24.546;2023-04-07T09:24:37;98008.38;;;14.15;38.98
20023;BME280;10172;42.054;24.546;2023-04-07T09:29:35;97991.53;;;13.94;40.14
20023;BME280;10172;42.054;24.546;2023-04-07T09:32:02;97991.59;;;13.83;39.96
20023;BME280;10172;42.054;24.546;2023-04-07T09:34:30;97987.59;;;14.28;39.82
20023;BME280;10172;42.054;24.546;2023-04-07T09:36:56;97991.41;;;13.75;39.26
20023;BME280;10172;42.054;24.546;2023-04-07T09:39:23;97985.31;;;14.94;38.66
20023;BME280;10172;42.054;24.546;2023-04-07T09:41:49;97991.16;;;15.18;36.26
20023;BME280;10172;42.054;24.546;2023-04-07T09:44:19;97995.09;;;15.24;39.55
20023;BME280;10172;42.054;24.546;2023-04-07T09:46:56;97985.47;;;15.12;36.66
20023;BME280;10172;42.054;24.546;2023-04-07T09:49:23;97998.34;;;14.59;38.58
20023;BME280;10172;42.054;24.546;2023-04-07T09:51:59;97992.97;;;14.59;38.22
20023;BME280;10172;42.054;24.546;2023-04-07T09:56:59;97984.41;;;14.65;38.96
20023;BME280;10172;42.054;24.546;2023-04-07T09:59:30;97982.41;;;15.16;38.38
20023;BME280;10172;42.054;24.546;2023-04-07T10:01:57;97983.28;;;15.65;38.74
20023;BME280;10172;42.054;24.546;2023-04-07T10:04:26;97983.03;;;15.48;36.64
20023;BME280;10172;42.054;24.546;2023-04-07T10:06:54;97986.22;;;15.81;38.24
20023;BME280;10172;42.054;24.546;2023-04-07T10:09:22;97979.88;;;15.24;38.59
20023;BME280;10172;42.054;24.546;2023-04-07T10:11:53;97986.88;;;15.06;37.26
20023;BME280;10172;42.054;24.546;2023-04-07T10:14:22;97990.31;;;15.85;38.99
20023;BME280;10172;42.054;24.546;2023-04-07T10:16:50;97988.03;;;15.90;38.13
20023;BME280;10172;42.054;24.546;2023-04-07T10:19:18;97988.50;;;16.32;38.36
20023;BME280;10172;42.054;24.546;2023-04-07T10:21:43;97980.84;;;16.37;37.54
20023;BME280;10172;42.054;24.546;2023-04-07T10:26:56;97982.63;;;16.55;35.80
20023;BME280;10172;42.054;24.546;2023-04-07T10:29:24;97972.63;;;16.38;34.72
20023;BME280;10172;42.054;24.546;2023-04-07T10:31:51;97972.47;;;16.86;34.94
20023;BME280;10172;42.054;24.546;2023-04-07T10:37:15;97974.22;;;16.31;36.97
20023;BME280;10172;42.054;24.546;2023-04-07T10:39:47;97983.59;;;16.27;38.93
20023;BME280;10172;42.054;24.546;2023-04-07T10:45:07;97973.41;;;15.55;39.92
20023;BME280;10172;42.054;24.546;2023-04-07T10:47:34;97971.13;;;15.80;39.37
20023;BME280;10172;42.054;24.546;2023-04-07T10:52:41;97964.06;;;15.79;37.82
20023;BME280;10172;42.054;24.546;2023-04-07T10:55:32;97972.56;;;15.55;38.67
20023;BME280;10172;42.054;24.546;2023-04-07T11:03:22;97971.69;;;15.26;39.19
20023;BME280;10172;42.054;24.546;2023-04-07T11:05:49;97967.47;;;15.52;39.70
20023;BME280;10172;42.054;24.546;2023-04-07T11:08:25;97966.59;;;15.42;38.45
20023;BME280;10172;42.054;24.546;2023-04-07T11:10:56;97966.34;;;15.54;38.63
20023;BME280;10172;42.054;24.546;2023-04-07T11:13:21;97960.19;;;16.10;37.81
20023;BME280;10172;42.054;24.546;2023-04-07T11:15:49;97961.78;;;16.30;37.87
20023;BME280;10172;42.054;24.546;2023-04-07T11:18:19;97968.47;;;16.26;38.12
20023;BME280;10172;42.054;24.546;2023-04-07T11:20:54;97967.41;;;16.00;36.52
20023;BME280;10172;42.054;24.546;2023-04-07T11:23:22;97965.22;;;16.23;37.72
20023;BME280;10172;42.054;24.546;2023-04-07T11:25:49;97971.59;;;16.12;38.13
20023;BME280;10172;42.054;24.546;2023-04-07T11:28:16;97969.03;;;16.30;37.82
20023;BME280;10172;42.054;24.546;2023-04-07T11:30:47;97960.06;;;16.76;38.55
20023;BME280;10172;42.054;24.546;2023-04-07T11:33:15;97946.66;;;16.93;36.89
20023;BME280;10172;42.054;24.546;2023-04-07T11:36:11;97960.69;;;16.33;38.17
20023;BME280;10172;42.054;24.546;2023-04-07T11:38:37;97948.81;;;16.26;38.09
20023;BME280;10172;42.054;24.546;2023-04-07T11:41:13;97957.66;;;16.45;38.77
20023;BME280;10172;42.054;24.546;2023-04-07T11:43:40;97951.63;;;16.70;36.13
20023;BME280;10172;42.054;24.546;2023-04-07T11:46:10;97957.63;;;16.18;36.63
20023;BME280;10172;42.054;24.546;2023-04-07T11:48:38;97954.66;;;16.48;36.49
20023;BME280;10172;42.054;24.546;2023-04-07T11:51:05;97945.38;;;17.15;36.86
20023;BME280;10172;42.054;24.546;2023-04-07T11:53:33;97936.59;;;16.78;37.06
20023;BME280;10172;42.054;24.546;2023-04-07T11:56:17;97950.16;;;16.49;37.03
20023;BME280;10172;42.054;24.546;2023-04-07T11:58:50;97954.28;;;16.43;36.34
20023;BME280;10172;42.054;24.546;2023-04-07T12:01:16;97944.84;;;16.66;36.68
20023;BME280;10172;42.054;24.546;2023-04-07T12:04:03;97949.84;;;16.25;37.25
20023;BME280;10172;42.054;24.546;2023-04-07T12:06:34;97938.38;;;17.04;35.85
20023;BME280;10172;42.054;24.546;2023-04-07T12:09:05;97932.22;;;16.77;37.00
20023;BME280;10172;42.054;24.546;2023-04-07T12:11:32;97944.56;;;16.69;37.08
20023;BME280;10172;42.054;24.546;2023-04-07T12:13:58;97947.50;;;15.93;37.64
20023;BME280;10172;42.054;24.546;2023-04-07T12:16:24;97948.00;;;15.69;37.85
20023;BME280;10172;42.054;24.546;2023-04-07T12:18:50;97945.16;;;15.80;38.13
20023;BME280;10172;42.054;24.546;2023-04-07T12:21:17;97936.66;;;15.85;38.19
20023;BME280;10172;42.054;24.546;2023-04-07T12:23:43;97941.84;;;16.05;38.61
20023;BME280;10172;42.054;24.546;2023-04-07T12:26:08;97941.94;;;16.50;38.07
20023;BME280;10172;42.054;24.546;2023-04-07T12:28:36;97937.88;;;16.73;37.87
20023;BME280;10172;42.054;24.546;2023-04-07T12:31:02;97938.81;;;16.55;37.86
20023;BME280;10172;42.054;24.546;2023-04-07T12:33:28;97941.03;;;16.32;37.45
20023;BME280;10172;42.054;24.546;2023-04-07T12:35:55;97949.03;;;16.42;37.30
20023;BME280;10172;42.054;24.546;2023-04-07T12:38:20;97943.72;;;15.86;36.97
20023;BME280;10172;42.054;24.546;2023-04-07T12:40:46;97940.78;;;15.79;38.27
20023;BME280;10172;42.054;24.546;2023-04-07T12:43:13;97933.09;;;16.40;37.37
20023;BME280;10172;42.054;24.546;2023-04-07T12:45:38;97927.50;;;16.24;37.44
20023;BME280;10172;42.054;24.546;2023-04-07T12:48:04;97941.69;;;16.07;37.96
20023;BME280;10172;42.054;24.546;2023-04-07T12:50:30;97932.38;;;16.01;38.21
20023;BME280;10172;42.054;24.546;2023-04-07T12:52:56;97938.56;;;16.48;37.58
20023;BME280;10172;42.054;24.546;2023-04-07T12:55:24;97923.38;;;16.66;38.36
20023;BME280;10172;42.054;24.546;2023-04-07T12:57:49;97925.94;;;16.86;36.76
20023;BME280;10172;42.054;24.546;2023-04-07T13:00:15;97927.81;;;17.03;37.56
20023;BME280;10172;42.054;24.546;2023-04-07T13:02:41;97914.91;;;16.89;36.59
20023;BME280;10172;42.054;24.546;2023-04-07T13:05:07;97918.66;;;16.96;37.26
20023;BME280;10172;42.054;24.546;2023-04-07T13:07:33;97917.69;;;16.69;38.53
20023;BME280;10172;42.054;24.546;2023-04-07T13:10:00;97930.00;;;16.90;39.10
20023;BME280;10172;42.054;24.546;2023-04-07T13:12:26;97917.78;;;16.78;38.40
20023;BME280;10172;42.054;24.546;2023-04-07T13:14:52;97920.66;;;16.94;37.54
20023;BME280;10172;42.054;24.546;2023-04-07T13:17:17;97909.88;;;16.76;37.99
20023;BME280;10172;42.054;24.546;2023-04-07T13:19:43;97915.19;;;16.86;37.26
20023;BME280;10172;42.054;24.546;2023-04-07T13:22:11;97921.16;;;16.52;38.99
20023;BME280;10172;42.054;24.546;2023-04-07T13:24:36;97915.03;;;16.87;37.80
20023;BME280;10172;42.054;24.546;2023-04-07T13:27:02;97930.72;;;15.91;38.85